Terminal Aerodrome Forecast
Issued by NWS

Home | Current Version | Previous Version | Text Only | Print | Product List | Glossary On
Versions: 1 2 3 4 5 6 7 8 9 10 11 12 13 14 15 16 17 18 19 20 21 22 23
000
FTUS45 KGJT 231138
TAFMTJ
TAF
KMTJ 231138Z 2312/2412 15007KT P6SM VCSH BKN040 WS020/22030KT
     FM231500 16015G23KT P6SM -SN BKN060 WS020/23045KT
     FM231800 22017G25KT P6SM -RA BKN040
     FM232200 22023G33KT 4SM -RA BKN045
     FM240100 24015G23KT 3SM -SN BKN030
     FM240600 20006KT P6SM VCSH BKN045=

USA.gov is the U.S. government's official web portal to all federal, state and local government web resources and services.